sensor_id;sensor_type;location;lat;lon;timestamp;P1;durP1;ratioP1;P2;durP2;ratioP2
19183;SDS011;9724;51.194;6.856;2023-06-26T00:00:11;8.23;;;6.90;;
19183;SDS011;9724;51.194;6.856;2023-06-26T00:02:38;7.67;;;6.40;;
19183;SDS011;9724;51.194;6.856;2023-06-26T00:05:04;7.63;;;6.83;;
19183;SDS011;9724;51.194;6.856;2023-06-26T00:07:31;7.77;;;6.90;;
19183;SDS011;9724;51.194;6.856;2023-06-26T00:09:59;13.20;;;6.80;;
19183;SDS011;9724;51.194;6.856;2023-06-26T00:12:27;8.07;;;6.57;;
19183;SDS011;9724;51.194;6.856;2023-06-26T00:14:54;8.47;;;7.27;;
19183;SDS011;9724;51.194;6.856;2023-06-26T00:17:20;9.67;;;6.90;;
19183;SDS011;9724;51.194;6.856;2023-06-26T00:19:46;7.50;;;6.70;;
19183;SDS011;9724;51.194;6.856;2023-06-26T00:22:13;7.07;;;6.43;;
19183;SDS011;9724;51.194;6.856;2023-06-26T00:24:39;7.60;;;6.87;;
19183;SDS011;9724;51.194;6.856;2023-06-26T00:27:06;7.83;;;6.87;;
19183;SDS011;9724;51.194;6.856;2023-06-26T00:29:32;12.67;;;7.53;;
19183;SDS011;9724;51.194;6.856;2023-06-26T00:31:59;8.60;;;6.80;;
19183;SDS011;9724;51.194;6.856;2023-06-26T00:34:25;7.93;;;6.97;;
19183;SDS011;9724;51.194;6.856;2023-06-26T00:36:51;9.80;;;7.10;;
19183;SDS011;9724;51.194;6.856;2023-06-26T00:39:18;7.50;;;6.30;;
19183;SDS011;9724;51.194;6.856;2023-06-26T00:41:44;10.53;;;7.30;;
19183;SDS011;9724;51.194;6.856;2023-06-26T00:44:11;11.23;;;7.20;;
19183;SDS011;9724;51.194;6.856;2023-06-26T00:46:38;8.53;;;7.13;;
19183;SDS011;9724;51.194;6.856;2023-06-26T00:49:04;7.80;;;6.77;;
19183;SDS011;9724;51.194;6.856;2023-06-26T00:51:31;7.77;;;6.73;;
19183;SDS011;9724;51.194;6.856;2023-06-26T00:53:57;10.83;;;7.27;;
19183;SDS011;9724;51.194;6.856;2023-06-26T00:56:24;9.37;;;7.00;;
19183;SDS011;9724;51.194;6.856;2023-06-26T00:58:50;9.57;;;7.33;;
19183;SDS011;9724;51.194;6.856;2023-06-26T01:01:16;7.57;;;6.73;;
19183;SDS011;9724;51.194;6.856;2023-06-26T01:03:43;10.17;;;6.60;;
19183;SDS011;9724;51.194;6.856;2023-06-26T01:06:11;8.50;;;7.27;;
19183;SDS011;9724;51.194;6.856;2023-06-26T01:08:38;10.70;;;7.50;;
19183;SDS011;9724;51.194;6.856;2023-06-26T01:11:05;8.37;;;7.57;;
19183;SDS011;9724;51.194;6.856;2023-06-26T01:13:31;7.77;;;6.77;;
19183;SDS011;9724;51.194;6.856;2023-06-26T01:15:58;8.03;;;7.23;;
19183;SDS011;9724;51.194;6.856;2023-06-26T01:18:25;8.03;;;6.50;;
19183;SDS011;9724;51.194;6.856;2023-06-26T01:20:52;9.50;;;7.07;;
19183;SDS011;9724;51.194;6.856;2023-06-26T01:23:20;8.67;;;6.97;;
19183;SDS011;9724;51.194;6.856;2023-06-26T01:25:54;11.43;;;7.03;;
19183;SDS011;9724;51.194;6.856;2023-06-26T01:28:29;7.97;;;7.10;;
19183;SDS011;9724;51.194;6.856;2023-06-26T01:30:56;8.17;;;6.80;;
19183;SDS011;9724;51.194;6.856;2023-06-26T01:33:22;9.57;;;7.27;;
19183;SDS011;9724;51.194;6.856;2023-06-26T01:35:49;10.10;;;6.80;;
19183;SDS011;9724;51.194;6.856;2023-06-26T01:38:16;8.07;;;6.67;;
19183;SDS011;9724;51.194;6.856;2023-06-26T01:40:43;9.00;;;6.70;;
19183;SDS011;9724;51.194;6.856;2023-06-26T01:43:11;7.63;;;6.60;;
19183;SDS011;9724;51.194;6.856;2023-06-26T01:45:42;10.70;;;6.90;;
19183;SDS011;9724;51.194;6.856;2023-06-26T01:48:11;7.90;;;6.63;;
19183;SDS011;9724;51.194;6.856;2023-06-26T01:50:39;9.23;;;6.40;;
19183;SDS011;9724;51.194;6.856;2023-06-26T01:53:07;8.67;;;6.50;;
19183;SDS011;9724;51.194;6.856;2023-06-26T01:55:39;12.73;;;6.40;;
19183;SDS011;9724;51.194;6.856;2023-06-26T01:58:08;10.03;;;7.17;;
19183;SDS011;9724;51.194;6.856;2023-06-26T02:00:34;9.50;;;6.53;;
19183;SDS011;9724;51.194;6.856;2023-06-26T02:03:03;7.80;;;6.47;;
19183;SDS011;9724;51.194;6.856;2023-06-26T02:05:31;11.20;;;7.37;;
19183;SDS011;9724;51.194;6.856;2023-06-26T02:07:58;8.53;;;7.27;;
19183;SDS011;9724;51.194;6.856;2023-06-26T02:10:26;7.27;;;6.57;;
19183;SDS011;9724;51.194;6.856;2023-06-26T02:12:53;7.70;;;6.90;;
19183;SDS011;9724;51.194;6.856;2023-06-26T02:15:19;8.00;;;7.20;;
19183;SDS011;9724;51.194;6.856;2023-06-26T02:17:45;8.23;;;7.30;;
19183;SDS011;9724;51.194;6.856;2023-06-26T02:20:14;8.27;;;7.03;;
19183;SDS011;9724;51.194;6.856;2023-06-26T02:22:41;8.90;;;7.17;;
19183;SDS011;9724;51.194;6.856;2023-06-26T02:25:08;11.00;;;7.70;;
19183;SDS011;9724;51.194;6.856;2023-06-26T02:27:34;9.67;;;7.40;;
19183;SDS011;9724;51.194;6.856;2023-06-26T02:30:00;8.67;;;6.93;;
19183;SDS011;9724;51.194;6.856;2023-06-26T02:32:27;8.40;;;7.50;;
19183;SDS011;9724;51.194;6.856;2023-06-26T02:34:53;10.37;;;7.50;;
19183;SDS011;9724;51.194;6.856;2023-06-26T02:37:20;10.67;;;7.13;;
19183;SDS011;9724;51.194;6.856;2023-06-26T02:39:47;9.77;;;7.03;;
19183;SDS011;9724;51.194;6.856;2023-06-26T02:42:13;12.97;;;7.37;;
19183;SDS011;9724;51.194;6.856;2023-06-26T02:44:39;10.40;;;7.47;;
19183;SDS011;9724;51.194;6.856;2023-06-26T02:47:06;10.03;;;7.50;;
19183;SDS011;9724;51.194;6.856;2023-06-26T02:49:32;10.77;;;7.30;;
19183;SDS011;9724;51.194;6.856;2023-06-26T02:51:59;10.37;;;7.00;;
19183;SDS011;9724;51.194;6.856;2023-06-26T02:54:26;9.33;;;7.53;;
19183;SDS011;9724;51.194;6.856;2023-06-26T02:56:52;7.73;;;6.97;;
19183;SDS011;9724;51.194;6.856;2023-06-26T02:59:18;10.37;;;7.60;;
19183;SDS011;9724;51.194;6.856;2023-06-26T03:01:45;9.90;;;7.17;;
19183;SDS011;9724;51.194;6.856;2023-06-26T03:04:11;14.30;;;7.10;;
19183;SDS011;9724;51.194;6.856;2023-06-26T03:06:37;9.60;;;7.33;;
19183;SDS011;9724;51.194;6.856;2023-06-26T03:09:04;10.53;;;7.10;;
19183;SDS011;9724;51.194;6.856;2023-06-26T03:11:31;9.60;;;7.80;;
19183;SDS011;9724;51.194;6.856;2023-06-26T03:13:57;9.07;;;7.27;;
19183;SDS011;9724;51.194;6.856;2023-06-26T03:16:24;11.60;;;7.30;;
19183;SDS011;9724;51.194;6.856;2023-06-26T03:18:50;9.70;;;7.97;;
19183;SDS011;9724;51.194;6.856;2023-06-26T03:21:16;10.07;;;7.47;;
19183;SDS011;9724;51.194;6.856;2023-06-26T03:23:42;10.77;;;7.40;;
19183;SDS011;9724;51.194;6.856;2023-06-26T03:26:09;10.57;;;7.90;;
19183;SDS011;9724;51.194;6.856;2023-06-26T03:28:36;12.60;;;8.07;;
19183;SDS011;9724;51.194;6.856;2023-06-26T03:31:02;9.90;;;7.40;;
19183;SDS011;9724;51.194;6.856;2023-06-26T03:33:28;8.43;;;7.40;;
19183;SDS011;9724;51.194;6.856;2023-06-26T03:35:54;13.80;;;7.53;;
19183;SDS011;9724;51.194;6.856;2023-06-26T03:38:21;10.00;;;6.37;;
19183;SDS011;9724;51.194;6.856;2023-06-26T03:40:47;9.50;;;6.33;;
19183;SDS011;9724;51.194;6.856;2023-06-26T03:43:14;9.00;;;6.87;;
19183;SDS011;9724;51.194;6.856;2023-06-26T03:45:41;9.63;;;6.40;;
19183;SDS011;9724;51.194;6.856;2023-06-26T03:48:08;7.93;;;6.80;;
19183;SDS011;9724;51.194;6.856;2023-06-26T03:50:35;13.63;;;6.17;;
19183;SDS011;9724;51.194;6.856;2023-06-26T03:53:01;7.33;;;5.63;;
19183;SDS011;9724;51.194;6.856;2023-06-26T03:55:28;13.83;;;6.43;;
19183;SDS011;9724;51.194;6.856;2023-06-26T03:57:54;8.33;;;6.50;;
19183;SDS011;9724;51.194;6.856;2023-06-26T04:00:20;13.67;;;6.43;;
19183;SDS011;9724;51.194;6.856;2023-06-26T04:02:47;9.23;;;6.23;;
19183;SDS011;9724;51.194;6.856;2023-06-26T04:05:14;10.77;;;6.27;;
19183;SDS011;9724;51.194;6.856;2023-06-26T04:07:40;11.87;;;6.07;;
19183;SDS011;9724;51.194;6.856;2023-06-26T04:10:07;7.23;;;6.30;;
19183;SDS011;9724;51.194;6.856;2023-06-26T04:12:34;10.57;;;5.87;;
19183;SDS011;9724;51.194;6.856;2023-06-26T04:15:00;13.67;;;6.13;;
19183;SDS011;9724;51.194;6.856;2023-06-26T04:17:26;8.53;;;6.00;;
19183;SDS011;9724;51.194;6.856;2023-06-26T04:19:53;6.93;;;5.63;;
19183;SDS011;9724;51.194;6.856;2023-06-26T04:22:19;9.47;;;5.67;;
19183;SDS011;9724;51.194;6.856;2023-06-26T04:24:46;13.70;;;6.33;;
19183;SDS011;9724;51.194;6.856;2023-06-26T04:27:12;8.33;;;5.80;;
19183;SDS011;9724;51.194;6.856;2023-06-26T04:29:39;12.10;;;6.13;;
19183;SDS011;9724;51.194;6.856;2023-06-26T04:32:06;11.13;;;5.83;;
19183;SDS011;9724;51.194;6.856;2023-06-26T04:34:32;10.10;;;5.77;;
19183;SDS011;9724;51.194;6.856;2023-06-26T04:37:00;8.03;;;5.60;;
19183;SDS011;9724;51.194;6.856;2023-06-26T04:39:26;13.17;;;5.70;;
19183;SDS011;9724;51.194;6.856;2023-06-26T04:41:52;9.23;;;5.93;;
19183;SDS011;9724;51.194;6.856;2023-06-26T04:44:18;10.57;;;5.47;;
19183;SDS011;9724;51.194;6.856;2023-06-26T04:46:45;11.63;;;5.83;;
19183;SDS011;9724;51.194;6.856;2023-06-26T04:49:11;5.73;;;5.23;;
19183;SDS011;9724;51.194;6.856;2023-06-26T04:51:37;6.97;;;5.03;;
19183;SDS011;9724;51.194;6.856;2023-06-26T04:54:06;7.60;;;5.67;;
19183;SDS011;9724;51.194;6.856;2023-06-26T04:56:33;6.00;;;5.40;;
19183;SDS011;9724;51.194;6.856;2023-06-26T04:58:59;8.17;;;5.40;;
19183;SDS011;9724;51.194;6.856;2023-06-26T05:01:25;11.70;;;5.03;;
19183;SDS011;9724;51.194;6.856;2023-06-26T05:03:55;14.43;;;5.37;;
19183;SDS011;9724;51.194;6.856;2023-06-26T05:06:21;8.43;;;4.80;;
19183;SDS011;9724;51.194;6.856;2023-06-26T05:08:47;8.90;;;5.20;;
19183;SDS011;9724;51.194;6.856;2023-06-26T05:11:14;8.27;;;5.20;;
19183;SDS011;9724;51.194;6.856;2023-06-26T05:13:41;6.10;;;5.00;;
19183;SDS011;9724;51.194;6.856;2023-06-26T05:16:08;10.97;;;5.27;;
19183;SDS011;9724;51.194;6.856;2023-06-26T05:18:35;6.70;;;5.13;;
19183;SDS011;9724;51.194;6.856;2023-06-26T05:21:01;6.10;;;5.20;;
19183;SDS011;9724;51.194;6.856;2023-06-26T05:23:29;6.70;;;5.00;;
19183;SDS011;9724;51.194;6.856;2023-06-26T05:25:57;9.47;;;4.70;;
19183;SDS011;9724;51.194;6.856;2023-06-26T05:28:24;9.70;;;5.00;;
19183;SDS011;9724;51.194;6.856;2023-06-26T05:30:53;6.37;;;5.07;;
19183;SDS011;9724;51.194;6.856;2023-06-26T05:33:19;8.27;;;4.97;;
19183;SDS011;9724;51.194;6.856;2023-06-26T05:35:48;9.90;;;5.20;;
19183;SDS011;9724;51.194;6.856;2023-06-26T05:38:14;7.47;;;5.57;;
19183;SDS011;9724;51.194;6.856;2023-06-26T05:40:41;8.37;;;5.00;;
19183;SDS011;9724;51.194;6.856;2023-06-26T05:43:08;7.70;;;5.33;;
19183;SDS011;9724;51.194;6.856;2023-06-26T05:45:36;9.77;;;5.67;;
19183;SDS011;9724;51.194;6.856;2023-06-26T05:48:03;10.67;;;5.90;;
19183;SDS011;9724;51.194;6.856;2023-06-26T05:50:30;8.20;;;5.30;;
19183;SDS011;9724;51.194;6.856;2023-06-26T05:52:57;8.33;;;5.13;;
19183;SDS011;9724;51.194;6.856;2023-06-26T05:55:24;10.33;;;5.73;;
19183;SDS011;9724;51.194;6.856;2023-06-26T05:57:51;9.07;;;5.30;;
19183;SDS011;9724;51.194;6.856;2023-06-26T06:00:19;7.07;;;5.07;;
19183;SDS011;9724;51.194;6.856;2023-06-26T06:02:47;10.33;;;5.20;;
19183;SDS011;9724;51.194;6.856;2023-06-26T06:05:13;11.47;;;4.80;;
19183;SDS011;9724;51.194;6.856;2023-06-26T06:07:40;5.43;;;4.80;;
19183;SDS011;9724;51.194;6.856;2023-06-26T06:10:06;8.07;;;4.97;;
19183;SDS011;9724;51.194;6.856;2023-06-26T06:12:33;12.40;;;4.80;;
19183;SDS011;9724;51.194;6.856;2023-06-26T06:14:59;8.37;;;4.67;;
19183;SDS011;9724;51.194;6.856;2023-06-26T06:17:27;10.43;;;4.93;;
19183;SDS011;9724;51.194;6.856;2023-06-26T06:19:58;10.47;;;4.87;;
19183;SDS011;9724;51.194;6.856;2023-06-26T06:22:24;9.13;;;5.40;;
19183;SDS011;9724;51.194;6.856;2023-06-26T06:24:51;10.33;;;5.53;;
19183;SDS011;9724;51.194;6.856;2023-06-26T06:27:17;8.77;;;4.80;;
19183;SDS011;9724;51.194;6.856;2023-06-26T06:29:44;11.77;;;4.70;;
19183;SDS011;9724;51.194;6.856;2023-06-26T06:32:10;7.17;;;5.33;;
19183;SDS011;9724;51.194;6.856;2023-06-26T06:34:37;8.43;;;4.77;;
19183;SDS011;9724;51.194;6.856;2023-06-26T06:37:04;6.20;;;5.00;;
19183;SDS011;9724;51.194;6.856;2023-06-26T06:39:30;7.33;;;4.60;;
19183;SDS011;9724;51.194;6.856;2023-06-26T06:41:57;12.03;;;5.80;;
19183;SDS011;9724;51.194;6.856;2023-06-26T06:44:23;14.37;;;5.50;;
19183;SDS011;9724;51.194;6.856;2023-06-26T06:46:49;7.53;;;4.80;;
19183;SDS011;9724;51.194;6.856;2023-06-26T06:49:15;11.90;;;4.67;;
19183;SDS011;9724;51.194;6.856;2023-06-26T06:51:42;8.20;;;4.87;;
19183;SDS011;9724;51.194;6.856;2023-06-26T06:54:09;12.93;;;5.27;;
19183;SDS011;9724;51.194;6.856;2023-06-26T06:56:35;9.90;;;5.40;;
19183;SDS011;9724;51.194;6.856;2023-06-26T06:59:01;10.70;;;5.17;;
19183;SDS011;9724;51.194;6.856;2023-06-26T07:01:28;6.33;;;4.50;;
19183;SDS011;9724;51.194;6.856;2023-06-26T07:03:54;15.30;;;4.90;;
19183;SDS011;9724;51.194;6.856;2023-06-26T07:06:21;14.37;;;4.90;;
19183;SDS011;9724;51.194;6.856;2023-06-26T07:08:47;11.97;;;4.90;;
19183;SDS011;9724;51.194;6.856;2023-06-26T07:11:14;9.03;;;4.47;;
19183;SDS011;9724;51.194;6.856;2023-06-26T07:13:40;8.53;;;4.47;;
19183;SDS011;9724;51.194;6.856;2023-06-26T07:16:06;9.60;;;4.33;;
19183;SDS011;9724;51.194;6.856;2023-06-26T07:18:33;13.43;;;4.17;;
19183;SDS011;9724;51.194;6.856;2023-06-26T07:20:59;10.60;;;4.50;;
19183;SDS011;9724;51.194;6.856;2023-06-26T07:23:25;12.07;;;4.80;;
19183;SDS011;9724;51.194;6.856;2023-06-26T07:25:52;15.30;;;4.63;;
19183;SDS011;9724;51.194;6.856;2023-06-26T07:28:19;10.03;;;4.40;;
19183;SDS011;9724;51.194;6.856;2023-06-26T07:30:46;11.83;;;4.33;;
19183;SDS011;9724;51.194;6.856;2023-06-26T07:33:12;7.57;;;3.83;;
19183;SDS011;9724;51.194;6.856;2023-06-26T07:35:38;8.03;;;4.40;;
19183;SDS011;9724;51.194;6.856;2023-06-26T07:38:04;12.47;;;4.53;;
19183;SDS011;9724;51.194;6.856;2023-06-26T07:40:31;10.90;;;4.03;;
19183;SDS011;9724;51.194;6.856;2023-06-26T07:42:57;11.07;;;4.33;;
19183;SDS011;9724;51.194;6.856;2023-06-26T07:45:24;11.47;;;4.00;;
19183;SDS011;9724;51.194;6.856;2023-06-26T07:47:52;7.80;;;4.77;;
19183;SDS011;9724;51.194;6.856;2023-06-26T07:50:19;8.87;;;4.50;;
19183;SDS011;9724;51.194;6.856;2023-06-26T07:52:48;11.83;;;4.53;;
19183;SDS011;9724;51.194;6.856;2023-06-26T07:55:14;10.93;;;4.37;;
19183;SDS011;9724;51.194;6.856;2023-06-26T07:57:41;14.73;;;4.67;;
19183;SDS011;9724;51.194;6.856;2023-06-26T08:00:09;8.50;;;4.77;;
19183;SDS011;9724;51.194;6.856;2023-06-26T08:02:36;8.53;;;4.50;;
19183;SDS011;9724;51.194;6.856;2023-06-26T08:05:03;10.43;;;4.47;;
19183;SDS011;9724;51.194;6.856;2023-06-26T08:07:30;9.67;;;4.20;;
19183;SDS011;9724;51.194;6.856;2023-06-26T08:09:56;8.97;;;4.40;;
19183;SDS011;9724;51.194;6.856;2023-06-26T08:12:23;14.87;;;4.90;;
19183;SDS011;9724;51.194;6.856;2023-06-26T08:14:49;14.20;;;5.03;;
19183;SDS011;9724;51.194;6.856;2023-06-26T08:17:16;18.50;;;4.60;;
19183;SDS011;9724;51.194;6.856;2023-06-26T08:19:43;11.17;;;4.77;;
19183;SDS011;9724;51.194;6.856;2023-06-26T08:22:09;10.83;;;5.13;;
19183;SDS011;9724;51.194;6.856;2023-06-26T08:24:35;13.53;;;5.10;;
19183;SDS011;9724;51.194;6.856;2023-06-26T08:27:02;14.77;;;5.47;;
19183;SDS011;9724;51.194;6.856;2023-06-26T08:29:29;13.87;;;5.57;;
19183;SDS011;9724;51.194;6.856;2023-06-26T08:31:55;13.03;;;5.53;;
19183;SDS011;9724;51.194;6.856;2023-06-26T08:34:22;11.03;;;5.23;;
19183;SDS011;9724;51.194;6.856;2023-06-26T08:36:48;12.67;;;5.10;;
19183;SDS011;9724;51.194;6.856;2023-06-26T08:39:15;17.50;;;5.90;;
19183;SDS011;9724;51.194;6.856;2023-06-26T08:41:41;12.90;;;5.17;;
19183;SDS011;9724;51.194;6.856;2023-06-26T08:44:09;18.33;;;5.63;;
19183;SDS011;9724;51.194;6.856;2023-06-26T08:46:36;14.53;;;5.43;;
19183;SDS011;9724;51.194;6.856;2023-06-26T08:49:04;14.50;;;5.40;;
19183;SDS011;9724;51.194;6.856;2023-06-26T08:51:37;14.57;;;5.33;;
19183;SDS011;9724;51.194;6.856;2023-06-26T08:54:06;12.73;;;5.07;;
19183;SDS011;9724;51.194;6.856;2023-06-26T08:56:35;8.67;;;4.83;;
19183;SDS011;9724;51.194;6.856;2023-06-26T08:59:02;11.80;;;4.80;;
19183;SDS011;9724;51.194;6.856;2023-06-26T09:01:29;13.63;;;5.13;;
19183;SDS011;9724;51.194;6.856;2023-06-26T09:03:56;9.43;;;4.87;;
19183;SDS011;9724;51.194;6.856;2023-06-26T09:06:22;16.20;;;5.03;;
19183;SDS011;9724;51.194;6.856;2023-06-26T09:08:49;11.37;;;4.37;;
19183;SDS011;9724;51.194;6.856;2023-06-26T09:11:16;9.70;;;4.37;;
19183;SDS011;9724;51.194;6.856;2023-06-26T09:13:42;11.47;;;4.77;;
19183;SDS011;9724;51.194;6.856;2023-06-26T09:16:09;11.33;;;4.80;;
19183;SDS011;9724;51.194;6.856;2023-06-26T09:18:35;12.10;;;4.83;;
19183;SDS011;9724;51.194;6.856;2023-06-26T09:21:05;13.27;;;4.97;;
19183;SDS011;9724;51.194;6.856;2023-06-26T09:23:33;21.50;;;5.33;;
19183;SDS011;9724;51.194;6.856;2023-06-26T09:25:59;12.27;;;4.73;;
19183;SDS011;9724;51.194;6.856;2023-06-26T09:28:28;10.87;;;4.13;;
19183;SDS011;9724;51.194;6.856;2023-06-26T09:30:55;15.80;;;4.80;;
19183;SDS011;9724;51.194;6.856;2023-06-26T09:33:26;11.23;;;4.37;;
19183;SDS011;9724;51.194;6.856;2023-06-26T09:35:53;11.40;;;4.13;;
19183;SDS011;9724;51.194;6.856;2023-06-26T09:38:19;12.87;;;4.10;;
19183;SDS011;9724;51.194;6.856;2023-06-26T09:40:46;7.20;;;4.00;;
19183;SDS011;9724;51.194;6.856;2023-06-26T09:43:13;16.40;;;4.13;;
19183;SDS011;9724;51.194;6.856;2023-06-26T09:45:40;12.27;;;4.60;;
19183;SDS011;9724;51.194;6.856;2023-06-26T09:48:07;17.43;;;4.03;;
19183;SDS011;9724;51.194;6.856;2023-06-26T09:50:34;10.30;;;3.73;;
19183;SDS011;9724;51.194;6.856;2023-06-26T09:53:06;8.60;;;3.30;;
19183;SDS011;9724;51.194;6.856;2023-06-26T09:55:34;11.13;;;4.13;;
19183;SDS011;9724;51.194;6.856;2023-06-26T09:58:00;9.30;;;3.73;;
19183;SDS011;9724;51.194;6.856;2023-06-26T10:00:30;13.87;;;3.80;;
19183;SDS011;9724;51.194;6.856;2023-06-26T10:02:57;15.33;;;3.43;;
19183;SDS011;9724;51.194;6.856;2023-06-26T10:05:24;10.27;;;3.17;;
19183;SDS011;9724;51.194;6.856;2023-06-26T10:07:51;10.27;;;3.60;;
19183;SDS011;9724;51.194;6.856;2023-06-26T10:10:18;9.05;;;3.47;;
19183;SDS011;9724;51.194;6.856;2023-06-26T10:12:45;11.93;;;3.43;;
19183;SDS011;9724;51.194;6.856;2023-06-26T10:15:15;8.48;;;3.42;;
19183;SDS011;9724;51.194;6.856;2023-06-26T10:17:43;9.52;;;3.40;;
19183;SDS011;9724;51.194;6.856;2023-06-26T10:20:10;6.25;;;3.05;;
19183;SDS011;9724;51.194;6.856;2023-06-26T10:22:39;10.10;;;3.08;;
19183;SDS011;9724;51.194;6.856;2023-06-26T10:25:07;6.60;;;2.70;;
19183;SDS011;9724;51.194;6.856;2023-06-26T10:27:36;9.85;;;2.72;;
19183;SDS011;9724;51.194;6.856;2023-06-26T10:30:04;9.97;;;2.90;;
19183;SDS011;9724;51.194;6.856;2023-06-26T10:32:33;7.30;;;2.50;;
19183;SDS011;9724;51.194;6.856;2023-06-26T10:34:59;6.60;;;2.35;;
19183;SDS011;9724;51.194;6.856;2023-06-26T10:37:42;6.70;;;2.70;;
19183;SDS011;9724;51.194;6.856;2023-06-26T10:40:09;5.97;;;2.60;;
19183;SDS011;9724;51.194;6.856;2023-06-26T10:42:36;3.20;;;2.10;;
19183;SDS011;9724;51.194;6.856;2023-06-26T10:45:09;8.07;;;2.53;;
19183;SDS011;9724;51.194;6.856;2023-06-26T10:47:37;7.27;;;2.53;;
19183;SDS011;9724;51.194;6.856;2023-06-26T10:50:17;6.87;;;2.20;;
19183;SDS011;9724;51.194;6.856;2023-06-26T10:53:08;4.53;;;2.37;;
19183;SDS011;9724;51.194;6.856;2023-06-26T10:55:43;4.10;;;2.33;;
19183;SDS011;9724;51.194;6.856;2023-06-26T10:58:28;5.07;;;2.37;;
19183;SDS011;9724;51.194;6.856;2023-06-26T11:06:32;8.45;;;2.20;;
19183;SDS011;9724;51.194;6.856;2023-06-26T11:09:01;4.87;;;2.03;;
19183;SDS011;9724;51.194;6.856;2023-06-26T11:14:30;8.60;;;2.38;;
19183;SDS011;9724;51.194;6.856;2023-06-26T11:16:57;2.47;;;1.90;;
19183;SDS011;9724;51.194;6.856;2023-06-26T11:19:25;4.28;;;1.77;;
19183;SDS011;9724;51.194;6.856;2023-06-26T11:21:52;5.30;;;1.90;;
19183;SDS011;9724;51.194;6.856;2023-06-26T11:24:24;3.00;;;1.90;;
19183;SDS011;9724;51.194;6.856;2023-06-26T11:26:51;3.63;;;2.20;;
19183;SDS011;9724;51.194;6.856;2023-06-26T11:29:17;6.93;;;1.87;;
19183;SDS011;9724;51.194;6.856;2023-06-26T11:31:43;7.47;;;1.80;;
19183;SDS011;9724;51.194;6.856;2023-06-26T11:34:10;3.33;;;2.00;;
19183;SDS011;9724;51.194;6.856;2023-06-26T11:36:37;1.63;;;1.53;;
19183;SDS011;9724;51.194;6.856;2023-06-26T11:39:04;3.23;;;1.50;;
19183;SDS011;9724;51.194;6.856;2023-06-26T11:41:33;5.40;;;1.60;;
19183;SDS011;9724;51.194;6.856;2023-06-26T11:44:00;5.83;;;1.57;;
19183;SDS011;9724;51.194;6.856;2023-06-26T11:46:30;4.30;;;1.50;;
19183;SDS011;9724;51.194;6.856;2023-06-26T11:48:57;4.70;;;1.50;;
19183;SDS011;9724;51.194;6.856;2023-06-26T11:51:26;5.40;;;1.63;;
19183;SDS011;9724;51.194;6.856;2023-06-26T11:53:52;5.97;;;1.60;;
19183;SDS011;9724;51.194;6.856;2023-06-26T11:56:19;2.30;;;1.80;;
19183;SDS011;9724;51.194;6.856;2023-06-26T11:58:58;3.47;;;1.67;;
19183;SDS011;9724;51.194;6.856;2023-06-26T12:01:26;2.57;;;1.60;;
19183;SDS011;9724;51.194;6.856;2023-06-26T12:03:58;5.60;;;1.50;;
19183;SDS011;9724;51.194;6.856;2023-06-26T12:06:26;3.97;;;1.60;;
19183;SDS011;9724;51.194;6.856;2023-06-26T12:08:53;3.67;;;1.70;;
19183;SDS011;9724;51.194;6.856;2023-06-26T12:11:19;7.53;;;1.90;;
19183;SDS011;9724;51.194;6.856;2023-06-26T12:13:47;3.47;;;1.90;;
19183;SDS011;9724;51.194;6.856;2023-06-26T12:16:14;4.83;;;1.87;;
19183;SDS011;9724;51.194;6.856;2023-06-26T12:18:41;4.17;;;1.90;;
19183;SDS011;9724;51.194;6.856;2023-06-26T12:21:07;3.67;;;1.60;;
19183;SDS011;9724;51.194;6.856;2023-06-26T12:23:35;8.23;;;1.70;;
19183;SDS011;9724;51.194;6.856;2023-06-26T12:26:17;5.07;;;1.50;;
19183;SDS011;9724;51.194;6.856;2023-06-26T12:28:44;2.53;;;1.70;;
19183;SDS011;9724;51.194;6.856;2023-06-26T12:31:14;3.27;;;1.50;;
19183;SDS011;9724;51.194;6.856;2023-06-26T12:33:42;3.87;;;1.37;;
19183;SDS011;9724;51.194;6.856;2023-06-26T12:36:10;4.60;;;1.37;;
19183;SDS011;9724;51.194;6.856;2023-06-26T12:38:36;4.70;;;1.50;;
19183;SDS011;9724;51.194;6.856;2023-06-26T12:41:03;3.23;;;1.80;;
19183;SDS011;9724;51.194;6.856;2023-06-26T12:43:29;7.53;;;1.30;;
19183;SDS011;9724;51.194;6.856;2023-06-26T12:45:56;5.73;;;1.73;;
19183;SDS011;9724;51.194;6.856;2023-06-26T12:48:36;3.13;;;1.17;;
19183;SDS011;9724;51.194;6.856;2023-06-26T12:51:07;6.27;;;1.67;;
19183;SDS011;9724;51.194;6.856;2023-06-26T12:53:34;4.57;;;1.40;;
19183;SDS011;9724;51.194;6.856;2023-06-26T12:56:02;1.43;;;1.33;;
19183;SDS011;9724;51.194;6.856;2023-06-26T12:58:29;2.87;;;1.20;;
19183;SDS011;9724;51.194;6.856;2023-06-26T13:00:55;2.00;;;1.30;;
19183;SDS011;9724;51.194;6.856;2023-06-26T13:03:23;5.53;;;1.60;;
19183;SDS011;9724;51.194;6.856;2023-06-26T13:05:50;2.57;;;1.43;;
19183;SDS011;9724;51.194;6.856;2023-06-26T13:08:16;1.53;;;1.40;;
19183;SDS011;9724;51.194;6.856;2023-06-26T13:10:44;9.57;;;1.93;;
19183;SDS011;9724;51.194;6.856;2023-06-26T13:13:11;4.17;;;1.40;;
19183;SDS011;9724;51.194;6.856;2023-06-26T13:15:37;3.50;;;1.70;;
19183;SDS011;9724;51.194;6.856;2023-06-26T13:18:04;2.20;;;1.30;;
19183;SDS011;9724;51.194;6.856;2023-06-26T13:20:30;2.40;;;1.40;;
19183;SDS011;9724;51.194;6.856;2023-06-26T13:22:57;6.60;;;1.77;;
19183;SDS011;9724;51.194;6.856;2023-06-26T13:25:23;5.20;;;1.63;;
19183;SDS011;9724;51.194;6.856;2023-06-26T13:27:50;2.90;;;1.33;;
19183;SDS011;9724;51.194;6.856;2023-06-26T13:30:16;6.83;;;1.27;;
19183;SDS011;9724;51.194;6.856;2023-06-26T13:32:44;4.27;;;1.30;;
19183;SDS011;9724;51.194;6.856;2023-06-26T13:35:10;5.03;;;1.40;;
19183;SDS011;9724;51.194;6.856;2023-06-26T13:37:36;2.27;;;1.17;;
19183;SDS011;9724;51.194;6.856;2023-06-26T13:40:04;4.23;;;1.70;;
19183;SDS011;9724;51.194;6.856;2023-06-26T13:42:35;4.67;;;1.40;;
19183;SDS011;9724;51.194;6.856;2023-06-26T13:45:03;3.87;;;1.80;;
19183;SDS011;9724;51.194;6.856;2023-06-26T13:47:44;1.90;;;1.13;;
19183;SDS011;9724;51.194;6.856;2023-06-26T13:50:10;2.30;;;1.20;;
19183;SDS011;9724;51.194;6.856;2023-06-26T13:52:36;9.10;;;1.47;;
19183;SDS011;9724;51.194;6.856;2023-06-26T13:55:04;6.40;;;1.30;;
19183;SDS011;9724;51.194;6.856;2023-06-26T13:57:31;2.70;;;1.30;;
19183;SDS011;9724;51.194;6.856;2023-06-26T13:59:57;2.47;;;1.23;;
19183;SDS011;9724;51.194;6.856;2023-06-26T14:02:23;5.50;;;1.60;;
19183;SDS011;9724;51.194;6.856;2023-06-26T14:04:50;1.43;;;1.10;;
19183;SDS011;9724;51.194;6.856;2023-06-26T14:07:16;13.53;;;1.47;;
19183;SDS011;9724;51.194;6.856;2023-06-26T14:09:43;4.63;;;1.37;;
19183;SDS011;9724;51.194;6.856;2023-06-26T14:12:10;5.60;;;1.20;;
19183;SDS011;9724;51.194;6.856;2023-06-26T14:14:36;1.80;;;1.20;;
19183;SDS011;9724;51.194;6.856;2023-06-26T14:17:03;2.43;;;1.43;;
19183;SDS011;9724;51.194;6.856;2023-06-26T14:19:31;6.57;;;1.40;;
19183;SDS011;9724;51.194;6.856;2023-06-26T14:21:58;7.73;;;1.43;;
19183;SDS011;9724;51.194;6.856;2023-06-26T14:24:25;2.00;;;1.37;;
19183;SDS011;9724;51.194;6.856;2023-06-26T14:26:51;2.60;;;1.20;;
19183;SDS011;9724;51.194;6.856;2023-06-26T14:29:18;3.97;;;1.70;;
19183;SDS011;9724;51.194;6.856;2023-06-26T14:31:46;2.00;;;1.27;;
19183;SDS011;9724;51.194;6.856;2023-06-26T14:34:16;2.77;;;1.40;;
19183;SDS011;9724;51.194;6.856;2023-06-26T14:36:44;6.77;;;1.40;;
19183;SDS011;9724;51.194;6.856;2023-06-26T14:39:10;3.60;;;1.60;;
19183;SDS011;9724;51.194;6.856;2023-06-26T14:41:37;4.27;;;1.60;;
19183;SDS011;9724;51.194;6.856;2023-06-26T14:44:04;6.60;;;1.63;;
19183;SDS011;9724;51.194;6.856;2023-06-26T14:46:34;6.87;;;1.40;;
19183;SDS011;9724;51.194;6.856;2023-06-26T14:49:02;6.23;;;1.67;;
19183;SDS011;9724;51.194;6.856;2023-06-26T14:51:29;3.60;;;1.37;;
19183;SDS011;9724;51.194;6.856;2023-06-26T14:53:55;5.73;;;1.40;;
19183;SDS011;9724;51.194;6.856;2023-06-26T14:56:22;3.00;;;1.40;;
19183;SDS011;9724;51.194;6.856;2023-06-26T14:58:49;10.37;;;1.90;;
19183;SDS011;9724;51.194;6.856;2023-06-26T15:01:17;2.73;;;1.67;;
19183;SDS011;9724;51.194;6.856;2023-06-26T15:03:45;4.33;;;1.50;;
19183;SDS011;9724;51.194;6.856;2023-06-26T15:06:15;4.57;;;1.30;;